Time;durP1;ratioP1;P1;durP2;ratioP2;P2;SDS_P1;SDS_P2;PMS_P1;PMS_P2;Temp;Humidity;BMP_temperature;BMP_pressure;BME280_temperature;BME280_humidity;BME280_pressure;Samples;Min_cycle;Max_cycle;Signal;HPM_P1;HPM_P2
2021/11/21 00:01:32;;;;;;;;;;;20.40;41.30;;;;;;491682;240;2121;-47
2021/11/21 00:03:33;;;;;;;;;;;20.50;41.40;;;;;;491714;240;1102;-47
2021/11/21 00:05:35;;;;;;;;;;;20.50;41.30;;;;;;491555;240;1182;-47
2021/11/21 00:07:36;;;;;;;;;;;20.40;41.30;;;;;;491466;240;1192;-47
2021/11/21 00:09:37;;;;;;;;;;;20.50;41.30;;;;;;491861;240;1207;-47
2021/11/21 00:11:39;;;;;;;;;;;20.50;41.30;;;;;;491840;240;1057;-47
2021/11/21 00:13:40;;;;;;;;;;;20.50;41.30;;;;;;491973;240;1098;-47
2021/11/21 00:15:42;;;;;;;;;;;20.50;41.20;;;;;;491631;240;1146;-46
2021/11/21 00:17:43;;;;;;;;;;;20.50;41.20;;;;;;491628;240;1057;-47
2021/11/21 00:19:44;;;;;;;;;;;20.50;41.20;;;;;;491582;240;1068;-47
2021/11/21 00:21:45;;;;;;;;;;;20.50;41.20;;;;;;491564;240;2176;-47
2021/11/21 00:23:47;;;;;;;;;;;20.50;41.20;;;;;;491587;240;1063;-46
2021/11/21 00:25:48;;;;;;;;;;;20.50;41.30;;;;;;491569;240;1056;-47
2021/11/21 00:27:49;;;;;;;;;;;20.40;41.30;;;;;;492025;240;1046;-47
2021/11/21 00:29:53;;;;;;;;;;;20.40;41.30;;;;;;491568;240;1261;-46
2021/11/21 00:31:52;;;;;;;;;;;20.40;41.30;;;;;;491910;240;2269;-47
2021/11/21 00:33:53;;;;;;;;;;;20.40;41.30;;;;;;491794;240;1095;-47
2021/11/21 00:35:55;;;;;;;;;;;20.40;41.30;;;;;;491981;240;1198;-47
2021/11/21 00:37:56;;;;;;;;;;;20.50;41.30;;;;;;491497;240;1459;-47
2021/11/21 00:39:57;;;;;;;;;;;20.50;41.30;;;;;;492036;240;1003;-47
2021/11/21 00:41:59;;;;;;;;;;;20.50;41.30;;;;;;491462;240;2138;-47
2021/11/21 00:44:00;;;;;;;;;;;20.40;41.30;;;;;;491961;240;1251;-47
2021/11/21 00:46:01;;;;;;;;;;;20.50;41.30;;;;;;491559;240;1229;-47
2021/11/21 00:48:03;;;;;;;;;;;20.50;41.30;;;;;;491796;240;1307;-47
2021/11/21 00:50:05;;;;;;;;;;;20.50;41.30;;;;;;492030;240;1067;-46
2021/11/21 00:52:05;;;;;;;;;;;20.50;41.30;;;;;;491474;240;2462;-47
2021/11/21 00:54:10;;;;;;;;;;;20.50;41.30;;;;;;491650;240;1075;-47
2021/11/21 00:56:09;;;;;;;;;;;20.50;41.30;;;;;;491567;240;1358;-46
2021/11/21 00:58:10;;;;;;;;;;;20.40;41.30;;;;;;491553;240;2244;-47
2021/11/21 01:00:11;;;;;;;;;;;20.50;41.30;;;;;;491831;240;1348;-46
2021/11/21 01:02:13;;;;;;;;;;;20.50;41.30;;;;;;491584;240;2196;-46
2021/11/21 01:04:14;;;;;;;;;;;20.40;41.20;;;;;;491438;240;1123;-47
2021/11/21 01:06:15;;;;;;;;;;;20.40;41.30;;;;;;491427;240;1146;-47
2021/11/21 01:08:17;;;;;;;;;;;20.40;41.30;;;;;;491786;240;1016;-47
2021/11/21 01:10:18;;;;;;;;;;;20.40;41.30;;;;;;491957;240;1315;-47
2021/11/21 01:12:19;;;;;;;;;;;20.40;41.30;;;;;;491535;240;1368;-46
2021/11/21 01:14:21;;;;;;;;;;;20.50;41.30;;;;;;491862;240;1042;-47
2021/11/21 01:16:22;;;;;;;;;;;20.40;41.30;;;;;;491459;240;1290;-47
2021/11/21 01:18:23;;;;;;;;;;;20.40;41.30;;;;;;491545;240;1331;-47
2021/11/21 01:20:25;;;;;;;;;;;20.40;41.30;;;;;;492012;240;1358;-47
2021/11/21 01:22:26;;;;;;;;;;;20.40;41.30;;;;;;491547;240;2180;-46
2021/11/21 01:24:27;;;;;;;;;;;20.40;41.20;;;;;;491534;240;953;-47
2021/11/21 01:26:29;;;;;;;;;;;20.40;41.30;;;;;;491457;240;1341;-46
2021/11/21 01:28:30;;;;;;;;;;;20.40;41.30;;;;;;491521;240;1199;-47
2021/11/21 01:30:31;;;;;;;;;;;20.40;41.30;;;;;;491795;240;1155;-46
2021/11/21 01:32:33;;;;;;;;;;;20.40;41.20;;;;;;491896;240;1199;-47
2021/11/21 01:34:34;;;;;;;;;;;20.40;41.30;;;;;;491743;240;1120;-47
2021/11/21 01:36:35;;;;;;;;;;;20.40;41.30;;;;;;491412;240;1168;-47
2021/11/21 01:38:37;;;;;;;;;;;20.50;41.30;;;;;;491508;240;1294;-46
2021/11/21 01:40:38;;;;;;;;;;;20.40;41.20;;;;;;491524;240;1134;-46
2021/11/21 01:42:39;;;;;;;;;;;20.50;41.20;;;;;;491734;240;2179;-47
2021/11/21 01:44:41;;;;;;;;;;;20.40;41.20;;;;;;492020;240;1057;-46
2021/11/21 01:46:42;;;;;;;;;;;20.40;41.30;;;;;;491540;240;1557;-47
2021/11/21 01:48:43;;;;;;;;;;;20.40;41.30;;;;;;491502;240;1204;-47
2021/11/21 01:50:45;;;;;;;;;;;20.50;41.20;;;;;;491986;240;1135;-47
2021/11/21 01:52:46;;;;;;;;;;;20.40;41.20;;;;;;491709;240;1161;-47
2021/11/21 01:54:47;;;;;;;;;;;20.40;41.30;;;;;;491797;240;1135;-47
2021/11/21 01:56:49;;;;;;;;;;;20.40;41.30;;;;;;491908;240;1712;-47
2021/11/21 01:58:50;;;;;;;;;;;20.40;41.30;;;;;;492029;240;2244;-46
2021/11/21 02:00:51;;;;;;;;;;;20.40;41.30;;;;;;491540;240;1314;-46
2021/11/21 02:02:53;;;;;;;;;;;20.40;41.40;;;;;;491985;240;2188;-47
2021/11/21 02:04:54;;;;;;;;;;;20.40;41.30;;;;;;491762;240;1084;-46
2021/11/21 02:06:55;;;;;;;;;;;20.40;41.30;;;;;;491531;240;1739;-47
2021/11/21 02:08:57;;;;;;;;;;;20.40;41.30;;;;;;491555;240;1255;-47
2021/11/21 02:10:59;;;;;;;;;;;20.40;41.30;;;;;;492063;240;1187;-47
2021/11/21 02:13:00;;;;;;;;;;;20.40;41.20;;;;;;491497;240;1850;-47
2021/11/21 02:15:01;;;;;;;;;;;20.40;41.20;;;;;;491561;240;1337;-47
2021/11/21 02:17:02;;;;;;;;;;;20.40;41.30;;;;;;491419;240;1307;-47
2021/11/21 02:19:04;;;;;;;;;;;20.50;41.30;;;;;;491691;240;1052;-46
2021/11/21 02:21:05;;;;;;;;;;;20.40;41.30;;;;;;491485;240;1129;-47
2021/11/21 02:23:06;;;;;;;;;;;20.40;41.30;;;;;;491491;240;1149;-47
2021/11/21 02:25:08;;;;;;;;;;;20.40;41.30;;;;;;492030;240;1099;-47
2021/11/21 02:27:09;;;;;;;;;;;20.40;41.30;;;;;;491446;240;1196;-46
2021/11/21 02:29:11;;;;;;;;;;;20.40;41.20;;;;;;491573;240;1081;-46
2021/11/21 02:31:12;;;;;;;;;;;20.40;41.30;;;;;;491520;240;2053;-47
2021/11/21 02:33:13;;;;;;;;;;;20.40;41.30;;;;;;491995;240;1050;-47
2021/11/21 02:35:14;;;;;;;;;;;20.40;41.20;;;;;;491879;240;1117;-47
2021/11/21 02:37:16;;;;;;;;;;;20.40;41.20;;;;;;491456;240;1002;-47
2021/11/21 02:39:17;;;;;;;;;;;20.50;41.20;;;;;;491543;240;1053;-47
2021/11/21 02:41:18;;;;;;;;;;;20.40;41.20;;;;;;491777;240;2188;-47
2021/11/21 02:43:20;;;;;;;;;;;20.40;41.30;;;;;;491611;240;1075;-46
2021/11/21 02:45:21;;;;;;;;;;;20.40;41.30;;;;;;491596;240;1069;-46
2021/11/21 02:47:22;;;;;;;;;;;20.40;41.20;;;;;;491607;240;1233;-47
2021/11/21 02:49:24;;;;;;;;;;;20.40;41.20;;;;;;491713;240;1060;-47
2021/11/21 02:51:25;;;;;;;;;;;20.40;41.20;;;;;;491579;240;1235;-47
2021/11/21 02:53:27;;;;;;;;;;;20.30;41.30;;;;;;491582;240;1085;-47
2021/11/21 02:55:28;;;;;;;;;;;20.40;41.30;;;;;;491773;240;1043;-46
2021/11/21 02:57:29;;;;;;;;;;;20.40;41.30;;;;;;491470;240;1316;-46
2021/11/21 02:59:33;;;;;;;;;;;20.40;41.30;;;;;;491541;240;1084;-47
2021/11/21 03:01:32;;;;;;;;;;;20.40;41.30;;;;;;491467;240;2179;-46
2021/11/21 03:03:33;;;;;;;;;;;20.40;41.30;;;;;;491617;240;1187;-46
2021/11/21 03:05:35;;;;;;;;;;;20.40;41.30;;;;;;491831;240;1328;-47
2021/11/21 03:07:36;;;;;;;;;;;20.40;41.20;;;;;;491475;240;1246;-47
2021/11/21 03:09:37;;;;;;;;;;;20.40;41.30;;;;;;491603;240;1043;-47
2021/11/21 03:11:38;;;;;;;;;;;20.40;41.20;;;;;;491479;240;1230;-47
2021/11/21 03:13:40;;;;;;;;;;;20.50;41.20;;;;;;491577;240;1074;-47
2021/11/21 03:15:41;;;;;;;;;;;20.40;41.10;;;;;;491918;240;1336;-47
2021/11/21 03:17:43;;;;;;;;;;;20.40;41.20;;;;;;491592;240;1501;-47
2021/11/21 03:19:45;;;;;;;;;;;20.40;41.20;;;;;;492054;240;1056;-47
2021/11/21 03:21:46;;;;;;;;;;;20.40;41.30;;;;;;491459;240;2172;-47
2021/11/21 03:23:47;;;;;;;;;;;20.50;41.10;;;;;;491620;240;1120;-46
2021/11/21 03:25:49;;;;;;;;;;;20.70;40.80;;;;;;491808;240;1462;-47
2021/11/21 03:27:50;;;;;;;;;;;20.90;40.50;;;;;;491589;240;1391;-48
2021/11/21 03:29:51;;;;;;;;;;;21.00;40.20;;;;;;491602;240;1074;-47
2021/11/21 03:31:53;;;;;;;;;;;21.10;39.90;;;;;;491785;240;1167;-47
2021/11/21 03:33:54;;;;;;;;;;;21.20;39.80;;;;;;492059;240;1220;-47
2021/11/21 03:35:55;;;;;;;;;;;21.30;39.60;;;;;;491693;240;1070;-47
2021/11/21 03:37:57;;;;;;;;;;;21.30;39.50;;;;;;491688;240;1150;-47
2021/11/21 03:39:58;;;;;;;;;;;21.40;39.40;;;;;;491773;240;1227;-47
2021/11/21 03:41:59;;;;;;;;;;;21.40;39.30;;;;;;491636;240;2192;-47
2021/11/21 03:44:01;;;;;;;;;;;21.40;39.20;;;;;;491771;240;1064;-47
2021/11/21 03:46:02;;;;;;;;;;;21.50;39.20;;;;;;491473;240;1437;-47
2021/11/21 03:48:03;;;;;;;;;;;21.50;39.10;;;;;;491636;240;1149;-47
2021/11/21 03:50:05;;;;;;;;;;;21.50;39.10;;;;;;492056;240;1035;-47
2021/11/21 03:52:06;;;;;;;;;;;21.60;39.10;;;;;;491818;240;1060;-47
2021/11/21 03:54:07;;;;;;;;;;;21.50;39.00;;;;;;491570;240;1049;-47
2021/11/21 03:56:09;;;;;;;;;;;21.60;39.00;;;;;;491519;240;1059;-47
2021/11/21 03:58:10;;;;;;;;;;;21.60;39.00;;;;;;491531;240;1022;-47
2021/11/21 04:00:11;;;;;;;;;;;21.60;38.90;;;;;;491751;240;956;-47
2021/11/21 04:02:13;;;;;;;;;;;21.60;38.80;;;;;;491474;240;2192;-47
2021/11/21 04:04:14;;;;;;;;;;;21.70;38.80;;;;;;491802;240;949;-47
2021/11/21 04:06:15;;;;;;;;;;;21.70;38.80;;;;;;491797;240;1038;-47
2021/11/21 04:08:17;;;;;;;;;;;21.70;38.80;;;;;;491750;240;1176;-46
2021/11/21 04:10:18;;;;;;;;;;;21.70;38.70;;;;;;491678;240;1054;-47
2021/11/21 04:12:20;;;;;;;;;;;21.70;38.60;;;;;;491477;240;1270;-47
2021/11/21 04:14:21;;;;;;;;;;;21.80;38.70;;;;;;491819;240;1027;-47
2021/11/21 04:16:22;;;;;;;;;;;21.80;38.60;;;;;;491397;240;1248;-47
2021/11/21 04:18:24;;;;;;;;;;;21.80;38.60;;;;;;491679;240;1203;-47
2021/11/21 04:20:25;;;;;;;;;;;21.80;38.60;;;;;;491591;240;1140;-47
2021/11/21 04:22:26;;;;;;;;;;;21.80;38.60;;;;;;491926;240;2120;-47
2021/11/21 04:24:28;;;;;;;;;;;21.80;38.60;;;;;;491829;240;1034;-47
2021/11/21 04:26:29;;;;;;;;;;;21.90;38.50;;;;;;491772;240;1481;-47
2021/11/21 04:28:30;;;;;;;;;;;21.90;38.50;;;;;;492030;240;1114;-47
2021/11/21 04:30:32;;;;;;;;;;;21.90;38.50;;;;;;491910;240;1411;-47
2021/11/21 04:32:33;;;;;;;;;;;21.90;38.50;;;;;;491595;240;1157;-47
2021/11/21 04:34:34;;;;;;;;;;;22.00;38.50;;;;;;492024;240;986;-47
2021/11/21 04:36:36;;;;;;;;;;;21.90;38.40;;;;;;491553;240;1205;-47
2021/11/21 04:38:37;;;;;;;;;;;22.00;38.40;;;;;;491559;240;1007;-47
2021/11/21 04:40:38;;;;;;;;;;;22.00;38.40;;;;;;491911;240;1383;-46
2021/11/21 04:42:40;;;;;;;;;;;22.00;38.40;;;;;;491464;240;2121;-47
2021/11/21 04:44:43;;;;;;;;;;;22.00;38.40;;;;;;491580;240;1084;-47
2021/11/21 04:46:42;;;;;;;;;;;22.00;38.30;;;;;;491740;240;1433;-47
2021/11/21 04:48:44;;;;;;;;;;;22.00;38.30;;;;;;491721;240;1170;-47
2021/11/21 04:50:45;;;;;;;;;;;22.00;38.30;;;;;;491991;240;1165;-47
2021/11/21 04:52:46;;;;;;;;;;;22.10;38.30;;;;;;491645;240;1219;-47
2021/11/21 04:54:48;;;;;;;;;;;22.00;38.20;;;;;;491479;240;982;-47
2021/11/21 04:56:49;;;;;;;;;;;22.00;38.20;;;;;;491684;240;1510;-47
2021/11/21 04:58:50;;;;;;;;;;;22.10;38.20;;;;;;491896;240;1106;-46
2021/11/21 05:00:52;;;;;;;;;;;22.10;38.20;;;;;;491926;240;1139;-47
2021/11/21 05:02:53;;;;;;;;;;;22.10;38.20;;;;;;491817;240;2184;-47
2021/11/21 05:04:54;;;;;;;;;;;22.10;38.20;;;;;;491992;240;1049;-47
2021/11/21 05:06:56;;;;;;;;;;;22.10;38.20;;;;;;491912;240;1509;-47
2021/11/21 05:08:57;;;;;;;;;;;22.10;38.10;;;;;;492026;240;1092;-47
2021/11/21 05:10:58;;;;;;;;;;;22.10;38.20;;;;;;491986;240;1154;-47
2021/11/21 05:13:00;;;;;;;;;;;22.10;38.20;;;;;;491991;240;1369;-47
2021/11/21 05:15:01;;;;;;;;;;;22.10;38.10;;;;;;491459;240;1032;-47
2021/11/21 05:17:03;;;;;;;;;;;22.10;38.10;;;;;;491473;240;1336;-47
2021/11/21 05:19:04;;;;;;;;;;;22.20;38.20;;;;;;491615;240;1158;-47
2021/11/21 05:21:05;;;;;;;;;;;22.20;38.10;;;;;;491941;240;1196;-47
2021/11/21 05:23:07;;;;;;;;;;;22.20;38.10;;;;;;491681;240;2188;-47
2021/11/21 05:25:08;;;;;;;;;;;22.20;38.10;;;;;;491577;240;1035;-47
2021/11/21 05:27:09;;;;;;;;;;;22.20;38.00;;;;;;491782;240;1350;-47
2021/11/21 05:29:11;;;;;;;;;;;22.20;38.10;;;;;;491735;240;1011;-47
2021/11/21 05:31:12;;;;;;;;;;;22.20;38.10;;;;;;491734;240;1185;-47
2021/11/21 05:33:14;;;;;;;;;;;22.20;38.00;;;;;;491546;240;1254;-47
2021/11/21 05:35:16;;;;;;;;;;;22.20;38.00;;;;;;492006;240;1205;-47
2021/11/21 05:37:17;;;;;;;;;;;22.20;38.00;;;;;;491517;240;2048;-47
2021/11/21 05:39:18;;;;;;;;;;;22.20;38.00;;;;;;491634;240;1029;-46
2021/11/21 05:41:19;;;;;;;;;;;22.20;38.00;;;;;;491718;240;1444;-46
2021/11/21 05:43:21;;;;;;;;;;;22.30;38.00;;;;;;491861;240;2192;-47
2021/11/21 05:45:22;;;;;;;;;;;22.20;38.00;;;;;;491867;240;1045;-47
2021/11/21 05:47:23;;;;;;;;;;;22.30;38.00;;;;;;491805;240;1297;-46
2021/11/21 05:49:25;;;;;;;;;;;22.30;38.00;;;;;;491560;240;1226;-47
2021/11/21 05:51:26;;;;;;;;;;;22.30;38.00;;;;;;491513;240;1159;-47
2021/11/21 05:53:27;;;;;;;;;;;22.30;38.00;;;;;;492015;240;1082;-47
2021/11/21 05:55:29;;;;;;;;;;;22.30;37.90;;;;;;492029;240;1189;-47
2021/11/21 05:57:30;;;;;;;;;;;22.30;37.90;;;;;;491933;240;1201;-47
2021/11/21 05:59:35;;;;;;;;;;;22.30;37.90;;;;;;491979;240;1193;-47
2021/11/21 06:01:33;;;;;;;;;;;22.30;37.90;;;;;;491602;240;2000;-47
2021/11/21 06:03:34;;;;;;;;;;;22.30;37.90;;;;;;491959;240;2180;-47
2021/11/21 06:05:35;;;;;;;;;;;22.40;37.90;;;;;;491600;240;1319;-47
2021/11/21 06:07:37;;;;;;;;;;;22.30;37.90;;;;;;491971;240;1328;-47
2021/11/21 06:09:38;;;;;;;;;;;22.40;37.90;;;;;;492050;240;1068;-47
2021/11/21 06:11:39;;;;;;;;;;;22.40;37.90;;;;;;491492;240;1172;-47
2021/11/21 06:13:41;;;;;;;;;;;22.40;37.90;;;;;;491730;240;1038;-47
2021/11/21 06:15:44;;;;;;;;;;;22.40;37.90;;;;;;491570;240;1042;-47
2021/11/21 06:17:44;;;;;;;;;;;22.30;37.80;;;;;;491596;240;2137;-47
2021/11/21 06:19:46;;;;;;;;;;;22.40;37.90;;;;;;491649;240;2201;-47
2021/11/21 06:21:46;;;;;;;;;;;22.40;37.80;;;;;;491571;240;1982;-47
2021/11/21 06:23:47;;;;;;;;;;;22.40;37.90;;;;;;491589;240;2188;-47
2021/11/21 06:25:49;;;;;;;;;;;22.40;37.90;;;;;;491916;240;1062;-47
2021/11/21 06:27:50;;;;;;;;;;;22.40;37.90;;;;;;491489;240;1267;-47
2021/11/21 06:29:51;;;;;;;;;;;22.40;37.90;;;;;;491722;240;1063;-47
2021/11/21 06:31:53;;;;;;;;;;;22.40;37.90;;;;;;491507;240;1322;-47
2021/11/21 06:33:56;;;;;;;;;;;22.40;37.90;;;;;;491934;240;1166;-47
2021/11/21 06:35:56;;;;;;;;;;;22.40;37.80;;;;;;491770;240;2078;-47
2021/11/21 06:37:58;;;;;;;;;;;22.40;37.80;;;;;;491565;240;1256;-47
2021/11/21 06:39:59;;;;;;;;;;;22.40;37.80;;;;;;491491;240;991;-47
2021/11/21 06:42:01;;;;;;;;;;;22.40;37.80;;;;;;491465;240;1336;-47
2021/11/21 06:44:02;;;;;;;;;;;22.40;37.80;;;;;;491716;240;2176;-47
2021/11/21 06:46:03;;;;;;;;;;;22.40;37.80;;;;;;491463;240;1453;-47
2021/11/21 06:48:09;;;;;;;;;;;22.50;37.80;;;;;;491898;240;1060;-47
2021/11/21 06:50:07;;;;;;;;;;;22.40;37.70;;;;;;491743;240;2386;-47
2021/11/21 06:52:08;;;;;;;;;;;22.50;37.80;;;;;;491673;240;1201;-47
2021/11/21 06:54:09;;;;;;;;;;;22.40;37.80;;;;;;491552;240;1041;-47
2021/11/21 06:56:10;;;;;;;;;;;22.50;37.80;;;;;;491828;240;1336;-47
2021/11/21 06:58:12;;;;;;;;;;;22.50;37.80;;;;;;491496;240;1186;-47
2021/11/21 07:00:13;;;;;;;;;;;22.50;37.70;;;;;;491595;240;1399;-47
2021/11/21 07:02:14;;;;;;;;;;;22.50;37.70;;;;;;491821;240;1214;-47
2021/11/21 07:04:16;;;;;;;;;;;22.50;37.70;;;;;;491894;240;2191;-47
2021/11/21 07:06:17;;;;;;;;;;;22.50;37.70;;;;;;491813;240;1433;-47
2021/11/21 07:08:18;;;;;;;;;;;22.50;37.70;;;;;;491496;240;1118;-47
2021/11/21 07:10:20;;;;;;;;;;;22.50;37.70;;;;;;491621;240;1107;-47
2021/11/21 07:12:21;;;;;;;;;;;22.50;37.70;;;;;;491992;240;1125;-47
2021/11/21 07:14:22;;;;;;;;;;;22.50;37.70;;;;;;491672;240;1095;-47
2021/11/21 07:16:24;;;;;;;;;;;22.50;37.70;;;;;;491485;240;1498;-47
2021/11/21 07:18:25;;;;;;;;;;;22.50;37.70;;;;;;491780;240;1206;-47
2021/11/21 07:20:26;;;;;;;;;;;22.50;37.70;;;;;;491624;240;1227;-47
2021/11/21 07:22:28;;;;;;;;;;;22.50;37.70;;;;;;491660;240;1310;-47
2021/11/21 07:24:29;;;;;;;;;;;22.50;37.70;;;;;;491703;240;2116;-47
2021/11/21 07:26:30;;;;;;;;;;;22.50;37.70;;;;;;491429;240;1416;-47
2021/11/21 07:28:32;;;;;;;;;;;22.50;37.70;;;;;;491606;240;1274;-46
2021/11/21 07:30:33;;;;;;;;;;;22.50;37.70;;;;;;491935;240;1033;-47
2021/11/21 07:32:35;;;;;;;;;;;22.50;37.70;;;;;;491532;240;1542;-47
2021/11/21 07:34:36;;;;;;;;;;;22.50;37.60;;;;;;491788;240;1109;-47
2021/11/21 07:36:37;;;;;;;;;;;22.60;37.70;;;;;;491603;240;1300;-47
2021/11/21 07:38:39;;;;;;;;;;;22.50;37.60;;;;;;491893;240;1089;-47
2021/11/21 07:40:40;;;;;;;;;;;22.50;37.60;;;;;;491996;240;987;-47
2021/11/21 07:42:41;;;;;;;;;;;22.60;37.60;;;;;;491636;240;1281;-47
2021/11/21 07:44:43;;;;;;;;;;;22.60;37.60;;;;;;491930;240;2125;-47
2021/11/21 07:46:44;;;;;;;;;;;22.60;37.70;;;;;;491883;240;1205;-47
2021/11/21 07:48:45;;;;;;;;;;;22.60;37.60;;;;;;492048;240;1234;-47
2021/11/21 07:50:47;;;;;;;;;;;22.60;37.60;;;;;;491663;240;1222;-47
2021/11/21 07:52:48;;;;;;;;;;;22.60;37.60;;;;;;491450;240;1202;-47
2021/11/21 07:54:49;;;;;;;;;;;22.60;37.60;;;;;;491476;240;1075;-47
2021/11/21 07:56:51;;;;;;;;;;;22.60;37.60;;;;;;491414;240;1293;-47
2021/11/21 07:58:52;;;;;;;;;;;22.60;37.60;;;;;;491511;240;1234;-48
2021/11/21 08:00:53;;;;;;;;;;;22.60;37.60;;;;;;491464;240;1102;-47
2021/11/21 08:02:55;;;;;;;;;;;22.60;37.60;;;;;;491974;240;1023;-47
2021/11/21 08:04:56;;;;;;;;;;;22.60;37.60;;;;;;491650;240;2125;-47
2021/11/21 08:06:57;;;;;;;;;;;22.60;37.70;;;;;;491566;240;1092;-47
2021/11/21 08:08:59;;;;;;;;;;;22.60;37.70;;;;;;492042;240;990;-47
2021/11/21 08:11:00;;;;;;;;;;;22.60;37.60;;;;;;491554;240;1070;-47
2021/11/21 08:13:01;;;;;;;;;;;22.60;37.60;;;;;;491592;240;1055;-47
2021/11/21 08:15:03;;;;;;;;;;;22.60;37.60;;;;;;491997;240;1088;-47
2021/11/21 08:17:04;;;;;;;;;;;22.60;37.60;;;;;;492005;240;1130;-47
2021/11/21 08:19:08;;;;;;;;;;;22.60;37.50;;;;;;491705;240;1197;-47
2021/11/21 08:21:07;;;;;;;;;;;22.60;37.50;;;;;;491743;240;2154;-47
2021/11/21 08:23:08;;;;;;;;;;;22.70;37.50;;;;;;492027;240;1079;-47
2021/11/21 08:25:09;;;;;;;;;;;22.60;37.50;;;;;;491588;240;2188;-47
2021/11/21 08:27:12;;;;;;;;;;;22.60;37.50;;;;;;491504;240;1327;-47
2021/11/21 08:29:12;;;;;;;;;;;22.60;37.50;;;;;;491614;240;2045;-47
2021/11/21 08:31:13;;;;;;;;;;;22.70;37.60;;;;;;491534;240;1150;-47
2021/11/21 08:33:15;;;;;;;;;;;22.60;37.50;;;;;;491539;240;1006;-47
2021/11/21 08:35:16;;;;;;;;;;;22.60;37.50;;;;;;491744;240;1135;-47
2021/11/21 08:37:17;;;;;;;;;;;22.70;37.60;;;;;;491980;240;1230;-47
2021/11/21 08:39:20;;;;;;;;;;;22.60;37.50;;;;;;491901;240;1044;-47
2021/11/21 08:41:20;;;;;;;;;;;22.60;37.50;;;;;;491668;240;1695;-47
2021/11/21 08:43:21;;;;;;;;;;;22.70;37.60;;;;;;491867;240;1061;-47
2021/11/21 08:45:23;;;;;;;;;;;22.60;37.50;;;;;;491813;240;2129;-47
2021/11/21 08:47:24;;;;;;;;;;;22.70;37.50;;;;;;491777;240;1062;-47
2021/11/21 08:49:25;;;;;;;;;;;22.60;37.50;;;;;;492070;240;1098;-47
2021/11/21 08:51:27;;;;;;;;;;;22.70;37.50;;;;;;491734;240;1167;-47
2021/11/21 08:53:28;;;;;;;;;;;22.70;37.50;;;;;;491663;240;1216;-47
2021/11/21 08:55:30;;;;;;;;;;;22.70;37.50;;;;;;491549;240;1162;-47
2021/11/21 08:57:31;;;;;;;;;;;22.70;37.50;;;;;;491584;240;2558;-47
2021/11/21 08:59:32;;;;;;;;;;;22.70;37.50;;;;;;491512;240;1034;-47
2021/11/21 09:01:33;;;;;;;;;;;22.70;37.50;;;;;;491444;240;1104;-47
2021/11/21 09:03:35;;;;;;;;;;;22.70;37.50;;;;;;491633;240;2195;-47
2021/11/21 09:05:36;;;;;;;;;;;22.70;37.50;;;;;;491904;240;2333;-47
2021/11/21 09:07:37;;;;;;;;;;;22.70;37.50;;;;;;491746;240;1301;-47
2021/11/21 09:09:39;;;;;;;;;;;22.60;37.50;;;;;;491854;240;1056;-47
2021/11/21 09:11:42;;;;;;;;;;;22.70;37.50;;;;;;491889;240;1147;-47
2021/11/21 09:13:41;;;;;;;;;;;22.70;37.50;;;;;;491880;240;2362;-47
2021/11/21 09:15:43;;;;;;;;;;;22.70;37.50;;;;;;491476;240;1192;-47
2021/11/21 09:17:44;;;;;;;;;;;22.70;37.50;;;;;;491438;240;1588;-47
2021/11/21 09:19:45;;;;;;;;;;;22.70;37.50;;;;;;491554;240;1155;-47
2021/11/21 09:21:47;;;;;;;;;;;22.70;37.50;;;;;;491680;240;1544;-47
2021/11/21 09:23:48;;;;;;;;;;;22.70;37.50;;;;;;491964;240;2178;-47
2021/11/21 09:25:49;;;;;;;;;;;22.70;37.50;;;;;;491893;240;1278;-47
2021/11/21 09:27:51;;;;;;;;;;;22.70;37.50;;;;;;491529;240;1159;-47
2021/11/21 09:29:52;;;;;;;;;;;22.70;37.50;;;;;;491509;240;1206;-47
2021/11/21 09:31:53;;;;;;;;;;;22.70;37.50;;;;;;491647;240;1386;-47
2021/11/21 09:33:55;;;;;;;;;;;22.70;37.50;;;;;;491573;240;1005;-47
2021/11/21 09:35:56;;;;;;;;;;;22.70;37.50;;;;;;491750;240;1262;-47
2021/11/21 09:37:58;;;;;;;;;;;22.70;37.50;;;;;;491567;240;1193;-47
2021/11/21 09:39:59;;;;;;;;;;;22.70;37.50;;;;;;491567;240;2372;-47
2021/11/21 09:42:00;;;;;;;;;;;22.70;37.40;;;;;;491655;240;1442;-47
2021/11/21 09:44:01;;;;;;;;;;;22.70;37.40;;;;;;491619;240;2184;-47
2021/11/21 09:46:03;;;;;;;;;;;22.70;37.40;;;;;;491889;240;1440;-47
2021/11/21 09:48:06;;;;;;;;;;;22.70;37.40;;;;;;491756;240;1224;-47
2021/11/21 09:50:06;;;;;;;;;;;22.70;37.40;;;;;;491611;240;2207;-47
2021/11/21 09:52:07;;;;;;;;;;;22.70;37.40;;;;;;491620;240;1337;-47
2021/11/21 09:54:08;;;;;;;;;;;22.70;37.40;;;;;;491599;240;1308;-47
2021/11/21 09:56:10;;;;;;;;;;;22.70;37.40;;;;;;491454;240;1202;-47
2021/11/21 09:58:11;;;;;;;;;;;22.70;37.40;;;;;;491650;240;1131;-46
2021/11/21 10:00:12;;;;;;;;;;;22.80;37.40;;;;;;491551;240;1031;-47
2021/11/21 10:02:14;;;;;;;;;;;22.70;37.40;;;;;;491438;240;1273;-47
2021/11/21 10:04:18;;;;;;;;;;;22.70;37.40;;;;;;491512;240;2121;-47
2021/11/21 10:06:16;;;;;;;;;;;22.70;37.40;;;;;;491534;240;1421;-47
2021/11/21 10:08:18;;;;;;;;;;;22.70;37.40;;;;;;491779;240;1258;-47
2021/11/21 10:10:19;;;;;;;;;;;22.80;37.40;;;;;;491654;240;1171;-47
2021/11/21 10:12:21;;;;;;;;;;;22.80;37.40;;;;;;491889;240;1172;-47
2021/11/21 10:14:22;;;;;;;;;;;22.80;37.40;;;;;;492044;240;1004;-47
2021/11/21 10:16:27;;;;;;;;;;;22.80;37.40;;;;;;491498;240;1396;-47
2021/11/21 10:18:25;;;;;;;;;;;22.80;37.40;;;;;;492124;240;2254;-47
2021/11/21 10:20:27;;;;;;;;;;;22.80;37.40;;;;;;492015;240;1076;-47
2021/11/21 10:22:28;;;;;;;;;;;22.80;37.40;;;;;;491545;240;2324;-47
2021/11/21 10:24:30;;;;;;;;;;;22.80;37.40;;;;;;492035;240;2177;-47
2021/11/21 10:26:30;;;;;;;;;;;22.80;37.40;;;;;;491873;240;2156;-47
2021/11/21 10:28:32;;;;;;;;;;;22.80;37.40;;;;;;492034;240;1066;-47
2021/11/21 10:30:33;;;;;;;;;;;22.80;37.40;;;;;;491536;240;1105;-47
2021/11/21 10:32:35;;;;;;;;;;;22.80;37.40;;;;;;491548;240;1073;-47
2021/11/21 10:34:36;;;;;;;;;;;22.80;37.40;;;;;;491757;240;1278;-47
2021/11/21 10:36:37;;;;;;;;;;;22.80;37.30;;;;;;491531;240;1803;-47
2021/11/21 10:38:39;;;;;;;;;;;22.80;37.40;;;;;;492045;240;1056;-47
2021/11/21 10:40:40;;;;;;;;;;;22.80;37.30;;;;;;492022;240;1051;-47
2021/11/21 10:42:41;;;;;;;;;;;22.80;37.40;;;;;;491558;240;1212;-47
2021/11/21 10:44:43;;;;;;;;;;;22.80;37.40;;;;;;491561;240;2195;-47
2021/11/21 10:46:44;;;;;;;;;;;22.80;37.30;;;;;;491929;240;1227;-47
2021/11/21 10:48:45;;;;;;;;;;;22.80;37.30;;;;;;491577;240;1416;-47
2021/11/21 10:50:50;;;;;;;;;;;22.80;37.40;;;;;;491566;240;1217;-47
2021/11/21 10:52:48;;;;;;;;;;;22.80;37.30;;;;;;491656;240;2608;-47
2021/11/21 10:54:49;;;;;;;;;;;22.70;37.50;;;;;;491938;240;1034;-47
2021/11/21 10:56:51;;;;;;;;;;;22.70;37.60;;;;;;491904;240;1344;-47
2021/11/21 10:58:52;;;;;;;;;;;22.50;37.70;;;;;;491994;240;1065;-47
2021/11/21 11:00:53;;;;;;;;;;;22.30;38.00;;;;;;491744;240;1414;-47
2021/11/21 11:02:55;;;;;;;;;;;22.20;38.30;;;;;;491492;240;1221;-47
2021/11/21 11:04:56;;;;;;;;;;;22.10;38.70;;;;;;491893;240;2195;-47
2021/11/21 11:06:58;;;;;;;;;;;21.90;38.90;;;;;;491809;240;1218;-47
2021/11/21 11:08:59;;;;;;;;;;;21.90;39.00;;;;;;491661;240;1041;-47
2021/11/21 11:11:00;;;;;;;;;;;21.90;39.10;;;;;;491573;240;1217;-46
2021/11/21 11:13:03;;;;;;;;;;;21.80;39.20;;;;;;491553;240;1156;-47
2021/11/21 11:15:04;;;;;;;;;;;21.70;39.30;;;;;;491589;240;1107;-47
2021/11/21 11:17:05;;;;;;;;;;;21.70;39.40;;;;;;491749;240;1145;-47
2021/11/21 11:19:07;;;;;;;;;;;21.70;39.50;;;;;;491605;240;1120;-47
2021/11/21 11:21:10;;;;;;;;;;;21.60;39.50;;;;;;491787;240;1120;-47
2021/11/21 11:23:09;;;;;;;;;;;21.60;39.50;;;;;;491554;240;1951;-46
2021/11/21 11:25:11;;;;;;;;;;;21.60;39.60;;;;;;491989;240;2117;-47
2021/11/21 11:27:12;;;;;;;;;;;21.50;39.60;;;;;;491778;240;1393;-47
2021/11/21 11:29:14;;;;;;;;;;;21.50;39.60;;;;;;491622;240;1055;-46
2021/11/21 11:31:15;;;;;;;;;;;21.50;39.70;;;;;;491622;240;1597;-47
2021/11/21 11:33:16;;;;;;;;;;;21.50;39.80;;;;;;491643;240;1126;-47
2021/11/21 11:35:18;;;;;;;;;;;21.40;39.80;;;;;;491690;240;1329;-47
2021/11/21 11:37:19;;;;;;;;;;;21.40;39.80;;;;;;491769;240;1207;-47
2021/11/21 11:39:20;;;;;;;;;;;21.50;39.90;;;;;;492008;240;1039;-47
2021/11/21 11:41:22;;;;;;;;;;;21.40;39.80;;;;;;491522;240;1591;-47
2021/11/21 11:43:27;;;;;;;;;;;21.40;39.90;;;;;;491602;240;1055;-47
2021/11/21 11:45:25;;;;;;;;;;;21.40;39.90;;;;;;492071;240;2105;-47
2021/11/21 11:47:26;;;;;;;;;;;21.40;40.00;;;;;;491626;240;1275;-47
2021/11/21 11:49:28;;;;;;;;;;;21.40;40.00;;;;;;491574;240;1176;-46
2021/11/21 11:51:29;;;;;;;;;;;21.30;39.90;;;;;;491678;240;1157;-47
2021/11/21 11:53:30;;;;;;;;;;;21.30;39.90;;;;;;491735;240;1192;-47
2021/11/21 11:55:32;;;;;;;;;;;21.40;40.10;;;;;;491840;240;1255;-46
2021/11/21 11:57:33;;;;;;;;;;;21.30;40.00;;;;;;491782;240;1592;-47